Buoy 13516

sailwx.info

Track history (hours):
 
Tides and Currents Weather Stations Pressure Air Temp Water Temp Dewpoint Dewpoint Depression Visibility Wind Speed Wind Dir Waves Ship Positions

Ao Chao Yang 13516

Last reported at 2014-Oct-24 18:11 UTC. Time now 2014-Oct-24 18:46 UTC.
Position N 28°26' W 037°55'.

Length 20 m.

Type: Fishing. MMSI: 412469022.

Water temperature 26.0 ° C

Date/timePositionNaut miles runAvg speedWind from/ knotsBaromVisibWave heightAir tempDewpointWater temp
2014-Oct-24 18:11N 28°26' W 037°55'0 0.0 26.0
2014-Oct-24 18:03N 28°26' W 037°55'0 0.0 26.0
2014-Oct-24 16:26N 28°25' W 037°55'2 1.0 26.1
2014-Oct-24 14:44N 28°26' W 037°57'0 0.0 26.0
2014-Oct-24 14:21N 28°26' W 037°57'0 0.0 26.0
2014-Oct-24 13:36N 28°26' W 037°57'0 0.0 26.0
2014-Oct-24 12:47N 28°26' W 037°57'1 4.2 26.0
2014-Oct-24 12:39N 28°26' W 037°58'112.7
2014-Oct-24 12:35N 28°26' W 037°59'0 0.0 26.0
2014-Oct-24 11:51N 28°26' W 037°59'0 0.0 26.0
2014-Oct-24 11:47N 28°26' W 037°59'0 0.0 26.0
2014-Oct-24 11:03N 28°26' W 037°59'0 0.0 26.0
2014-Oct-24 11:00N 28°26' W 037°59'0 0.2 26.0
2014-Oct-24 09:26N 28°26' W 037°58'0 0.4 26.0
2014-Oct-24 08:45N 28°26' W 037°58'0 3.2 26.0
2014-Oct-24 08:39N 28°26' W 037°59'0 0.0 26.0
2014-Oct-24 08:35N 28°26' W 037°59'0 0.1 26.0
2014-Oct-24 07:05N 28°25' W 037°59'1 0.3 26.0
2014-Oct-24 05:23N 28°25' W 037°59'0 0.0 26.0
2014-Oct-24 05:02N 28°25' W 037°59'111.6 26.0
2014-Oct-24 04:56N 28°24' W 037°59'0 0.0 26.0
2014-Oct-24 03:23N 28°24' W 037°59'123.0
2014-Oct-24 03:21N 28°25' W 037°59'112.7 26.0
2014-Oct-24 03:15N 28°25' W 037°58'0 0.0 26.0
2014-Oct-24 00:23N 28°25' W 037°58'1 0.7 26.0
2014-Oct-23 23:33N 28°24' W 037°58'0 0.0 26.0
2014-Oct-23 23:29N 28°24' W 037°58'0 0.0 26.0
2014-Oct-23 23:20N 28°24' W 037°58'0 0.0 26.0
2014-Oct-23 22:38N 28°24' W 037°58'0 3.6 26.0
2014-Oct-23 22:35N 28°24' W 037°58'0 0.0 26.1
2014-Oct-23 22:32N 28°24' W 037°58'0 0.0 26.1
2014-Oct-23 22:15N 28°24' W 037°58'1 0.5 26.1
2014-Oct-23 20:27N 28°25' W 037°58'0 0.0 26.1
2014-Oct-23 20:17N 28°25' W 037°58'1 0.6 26.1
2014-Oct-23 18:39N 28°26' W 037°57'0 0.0 26.1
2014-Oct-23 18:33N 28°26' W 037°57'0 0.0 26.1
2014-Oct-23 16:57N 28°26' W 037°57'0 0.3 26.2
2014-Oct-23 16:38N 28°26' W 037°57'0 1.2 26.2
2014-Oct-23 16:32N 28°26' W 037°57'1 0.5 26.2
2014-Oct-23 14:53N 28°27' W 037°58'1 0.9 26.1
2014-Oct-23 13:56N 28°27' W 037°59'1 1.0 26.1
2014-Oct-23 13:06N 28°27' W 037°58'1 7.0 26.1
2014-Oct-23 12:59N 28°27' W 037°59'0 0.0 26.1
2014-Oct-23 12:11N 28°27' W 037°59'0 0.0 26.0
2014-Oct-23 12:08N 28°27' W 037°59'0 0.2 26.0
2014-Oct-23 11:23N 28°27' W 037°59'0 3.2 26.0
2014-Oct-23 11:18N 28°27' W 037°59'112.4 26.0
2014-Oct-23 11:15N 28°26' W 037°59'0 0.0 26.0
2014-Oct-23 09:53N 28°26' W 037°59'1 0.9 26.0
2014-Oct-23 08:59N 28°27' W 038°00'0 0.2 26.0
2014-Oct-23 07:15N 28°27' W 038°00'0 3.5 26.0
2014-Oct-23 07:08N 28°27' W 038°01'0 0.0 26.0
2014-Oct-23 06:53N 28°27' W 038°01'0 0.0 26.0
2014-Oct-23 06:38N 28°27' W 038°01'0 0.0 26.1
2014-Oct-23 05:35N 28°27' W 038°01'1 1.4 26.1
2014-Oct-23 05:14N 28°26' W 038°01'1 6.9 26.1
2014-Oct-23 05:06N 28°25' W 037°60'0 0.0 26.1
2014-Oct-23 03:33N 28°25' W 037°60'0 0.1 26.1
2014-Oct-22 23:51N 28°25' W 038°00'0 0.0 26.1
2014-Oct-22 23:47N 28°25' W 038°00'0 0.0
2014-Oct-22 23:03N 28°25' W 038°00'1 5.9 26.1
2014-Oct-22 22:57N 28°25' W 037°60'0 0.0 26.1
2014-Oct-22 22:44N 28°25' W 037°60'1 2.1 26.1
2014-Oct-22 22:12N 28°26' W 037°60'0 0.0 26.1
2014-Oct-22 20:57N 28°26' W 037°60'0 0.0 26.1
2014-Oct-22 20:42N 28°26' W 037°60'0 0.0 26.1
2014-Oct-22 20:29N 28°26' W 037°60'0 0.0 26.1
2014-Oct-22 19:21N 28°26' W 037°60'0 0.0 26.1
2014-Oct-22 18:51N 28°26' W 037°60'0 0.0 26.2
2014-Oct-22 17:05N 28°26' W 037°60'0 0.0 26.2
2014-Oct-22 16:48N 28°26' W 037°60'1 0.3 26.2
2014-Oct-22 15:08N 28°27' W 037°59'1 0.5 26.2
2014-Oct-22 12:35N 28°28' W 038°01'0 0.0 26.2
2014-Oct-22 11:44N 28°28' W 038°01'1 7.6 26.1
2014-Oct-22 11:39N 28°28' W 038°01'0 0.2 26.1
2014-Oct-22 10:48N 28°28' W 038°01'0 0.0 26.1
2014-Oct-22 09:23N 28°28' W 038°01'139.5 26.1
2014-Oct-22 09:21N 28°27' W 038°03'0 0.0 26.1
2014-Oct-22 09:06N 28°27' W 038°03'1 9.5 26.1
2014-Oct-22 09:02N 28°27' W 038°02'1 5.9 26.1
2014-Oct-22 08:50N 28°28' W 038°01'1 0.6 26.1
2014-Oct-22 07:27N 28°27' W 038°02'0 0.3 26.1
2014-Oct-22 07:08N 28°27' W 038°02'1 0.5 26.1
2014-Oct-22 05:48N 28°27' W 038°02'0 3.6 26.1
2014-Oct-22 05:44N 28°27' W 038°02'0 0.0 26.1
2014-Oct-22 05:24N 28°27' W 038°02'1 0.4 26.1
2014-Oct-22 03:47N 28°27' W 038°03'0 0.0 26.2
2014-Oct-22 03:44N 28°27' W 038°03'1 9.5 26.2
2014-Oct-22 03:36N 28°26' W 038°03'0 0.1 26.2
2014-Oct-22 01:03N 28°26' W 038°02'2 2.5 26.2
2014-Oct-22 00:15N 28°27' W 038°01'214.8 26.2
2014-Oct-22 00:08N 28°26' W 038°03'0 0.0 26.2
2014-Oct-21 23:24N 28°26' W 038°03'110.5 26.2
2014-Oct-21 23:17N 28°26' W 038°01'0 0.0 26.2
2014-Oct-21 22:33N 28°26' W 038°01'0 0.0 26.2
2014-Oct-21 22:27N 28°26' W 038°01'0 0.0 26.2
2014-Oct-21 21:38N 28°26' W 038°01'1 0.5 26.2
2014-Oct-21 20:38N 28°27' W 038°01'0 0.0 26.2
2014-Oct-21 19:59N 28°27' W 038°01'0 0.0 26.2
2014-Oct-21 19:27N 28°27' W 038°01'0 0.0 26.2
2014-Oct-21 19:02N 28°27' W 038°01'0 0.0 26.2
2014-Oct-21 18:57N 28°27' W 038°01'0 0.2 26.2
2014-Oct-21 17:45N 28°27' W 038°01'1 1.6 26.3
2014-Oct-21 17:21N 28°27' W 038°01'0 0.0 26.2
2014-Oct-21 17:00N 28°27' W 038°01'1 0.6 26.2
2014-Oct-21 15:18N 28°27' W 038°02'1 0.2 26.3
2014-Oct-21 12:53N 28°28' W 038°02'0 0.0 26.2
2014-Oct-21 12:51N 28°28' W 038°02'110.9 26.2
2014-Oct-21 12:48N 28°28' W 038°02'0 0.5 26.2
2014-Oct-21 12:06N 28°28' W 038°02'1 0.7 26.2
2014-Oct-21 11:11N 28°28' W 038°03'0 0.0 26.2
2014-Oct-21 09:45N 28°28' W 038°03'0 0.0 26.2
2014-Oct-21 09:20N 28°28' W 038°03'119.3 26.2
2014-Oct-21 09:18N 28°28' W 038°02'0 0.0 26.2
2014-Oct-21 09:14N 28°28' W 038°02'0 0.0 26.2
2014-Oct-21 08:08N 28°28' W 038°02'0 1.1 26.2
2014-Oct-21 07:41N 28°28' W 038°03'0 4.8 26.3
2014-Oct-21 07:38N 28°28' W 038°03'0 7.5 26.3
2014-Oct-21 07:35N 28°28' W 038°03'0 0.0 26.3
2014-Oct-21 07:32N 28°28' W 038°03'0 0.0 26.3
2014-Oct-21 06:30N 28°28' W 038°03'0 0.7 26.3
2014-Oct-21 06:00N 28°28' W 038°03'0 8.9 26.3
2014-Oct-21 05:57N 28°28' W 038°03'0 0.0 26.3
2014-Oct-21 05:53N 28°28' W 038°03'0 0.0 26.3
2014-Oct-21 05:33N 28°28' W 038°03'111.2 26.3
2014-Oct-21 05:29N 28°28' W 038°04'0 0.0 26.3
2014-Oct-21 03:51N 28°28' W 038°04'111.6 26.3
2014-Oct-21 03:48N 28°27' W 038°03'0 0.0 26.3
2014-Oct-21 01:23N 28°27' W 038°03'1 1.3 26.3
2014-Oct-21 00:35N 28°27' W 038°05'0 0.0 26.3
2014-Oct-20 23:44N 28°27' W 038°05'0 0.0 26.3
2014-Oct-20 23:41N 28°27' W 038°05'0 0.0 26.3
2014-Oct-20 22:53N 28°27' W 038°05'116.7 26.3
2014-Oct-20 22:51N 28°27' W 038°04'0 0.0 26.3
2014-Oct-20 22:44N 28°27' W 038°04'0 0.0
2014-Oct-20 22:06N 28°27' W 038°04'110.4 26.4
2014-Oct-20 22:02N 28°26' W 038°04'0 3.9 26.4
2014-Oct-20 21:57N 28°27' W 038°03'0 0.0 26.4
2014-Oct-20 21:27N 28°27' W 038°03'0 0.2 26.4
2014-Oct-20 20:21N 28°27' W 038°03'0 0.1 26.4
2014-Oct-20 19:53N 28°27' W 038°03'1 5.8 26.4
2014-Oct-20 19:47N 28°27' W 038°03'0 0.1 26.4
2014-Oct-20 19:08N 28°27' W 038°03'1 0.8 26.4
2014-Oct-20 18:11N 28°27' W 038°03'1 1.5 26.4
2014-Oct-20 17:32N 28°27' W 038°02'0 0.9 26.4
2014-Oct-20 17:08N 28°27' W 038°03'0 0.2 26.4
2014-Oct-20 15:29N 28°27' W 038°03'0 0.3 26.4
2014-Oct-20 14:05N 28°28' W 038°03'0 0.1 26.4
2014-Oct-20 13:17N 28°27' W 038°03'0 4.3 26.4
2014-Oct-20 13:11N 28°28' W 038°03'0 0.0 26.4
2014-Oct-20 12:24N 28°28' W 038°03'0 1.6 26.4
2014-Oct-20 12:21N 28°28' W 038°03'0 6.4 26.4
2014-Oct-20 12:18N 28°28' W 038°03'0 0.0 26.4
2014-Oct-20 11:33N 28°28' W 038°03'130.5
2014-Oct-20 11:32N 28°28' W 038°04'0 0.5 26.4
2014-Oct-20 10:38N 28°28' W 038°04'0 0.0
2014-Oct-20 09:48N 28°28' W 038°04'1 0.6 26.4
2014-Oct-20 08:33N 28°28' W 038°03'1 1.4 26.4
2014-Oct-20 08:08N 28°28' W 038°04'0 0.5 26.4
2014-Oct-20 07:47N 28°28' W 038°04'0 9.8 26.4
2014-Oct-20 07:44N 28°28' W 038°04'0 0.1 26.4
2014-Oct-20 06:51N 28°28' W 038°04'0 0.6 26.4
2014-Oct-20 06:30N 28°28' W 038°04'1 2.1 26.5
2014-Oct-20 06:08N 28°28' W 038°05'0 1.6 26.5
2014-Oct-20 06:02N 28°28' W 038°05'0 0.2 26.5
2014-Oct-20 05:45N 28°28' W 038°05'0 4.1 26.5
2014-Oct-20 05:41N 28°28' W 038°05'1 0.1 26.5
2014-Oct-20 00:53N 28°28' W 038°06'0 0.5 26.5
2014-Oct-20 00:05N 28°28' W 038°05'2 1.8 26.5
2014-Oct-19 23:15N 28°27' W 038°06'0 3.1 26.5
2014-Oct-19 23:08N 28°27' W 038°06'1 1.6 26.5
2014-Oct-19 22:24N 28°28' W 038°07'217.1 26.5
2014-Oct-19 22:17N 28°27' W 038°06'0 0.0 26.5
2014-Oct-19 20:51N 28°27' W 038°06'0 0.4 26.5
2014-Oct-19 20:17N 28°27' W 038°06'0 0.0 26.6
2014-Oct-19 19:23N 28°27' W 038°06'0 1.6 26.5
2014-Oct-19 19:21N 28°27' W 038°06'0 2.4 26.6
2014-Oct-19 19:15N 28°26' W 038°06'0 0.0 26.6
2014-Oct-19 18:36N 28°26' W 038°06'0 0.3 26.6
2014-Oct-19 17:42N 28°26' W 038°05'0 1.3 26.6
2014-Oct-19 17:20N 28°27' W 038°06'1 0.5 26.6
2014-Oct-19 15:41N 28°27' W 038°07'1 0.7 26.6
2014-Oct-19 14:24N 28°27' W 038°06'1 1.5 26.6
2014-Oct-19 13:39N 28°28' W 038°06'0 0.5 26.6
2014-Oct-19 12:50N 28°27' W 038°05'0 2.8 26.6
2014-Oct-19 12:41N 28°28' W 038°06'0 0.4 26.6
2014-Oct-19 11:53N 28°28' W 038°05'0 7.3 26.6
2014-Oct-19 11:50N 28°28' W 038°05'1 1.4 26.6
2014-Oct-19 11:06N 28°29' W 038°06'0 0.0 26.6
2014-Oct-19 11:00N 28°29' W 038°06'0 0.1 26.6
2014-Oct-19 08:57N 28°29' W 038°07'1 5.2 26.6
2014-Oct-19 08:51N 28°29' W 038°06'1 4.4 26.6
2014-Oct-19 08:44N 28°29' W 038°07'1 0.8 26.6
2014-Oct-19 08:03N 28°29' W 038°06'0 1.8 26.6
2014-Oct-19 07:59N 28°29' W 038°06'0 0.3 26.6
2014-Oct-19 07:20N 28°29' W 038°06'0 1.1 26.6
2014-Oct-19 07:03N 28°29' W 038°07'0 0.6 26.6
2014-Oct-19 06:21N 28°29' W 038°07'0 0.9 26.6
2014-Oct-19 05:51N 28°29' W 038°08'0 0.0 26.6
2014-Oct-19 04:17N 28°29' W 038°08'0 2.4 26.6
2014-Oct-19 04:08N 28°28' W 038°08'0 0.2 26.6
2014-Oct-19 01:12N 28°28' W 038°08'0 0.0 26.6
2014-Oct-19 00:26N 28°28' W 038°08'1 1.4 26.6
2014-Oct-18 23:36N 28°28' W 038°09'0 0.0 26.6
2014-Oct-18 23:32N 28°28' W 038°09'121.3 26.6
2014-Oct-18 23:29N 28°27' W 038°08'0 0.0 26.6
2014-Oct-18 22:45N 28°27' W 038°08'1 7.8 26.6
2014-Oct-18 22:39N 28°27' W 038°07'0 0.0 26.6
2014-Oct-18 21:33N 28°27' W 038°07'1 1.0 26.7
2014-Oct-18 20:41N 28°27' W 038°08'1 1.3 26.7
2014-Oct-18 19:47N 28°27' W 038°07'110.2 26.7
2014-Oct-18 19:44N 28°27' W 038°07'0 0.0 26.7
2014-Oct-18 19:36N 28°27' W 038°07'0 0.0 26.7
2014-Oct-18 19:02N 28°27' W 038°07'1 6.0 26.7
2014-Oct-18 18:56N 28°27' W 038°07'0 0.3 26.7
2014-Oct-18 17:56N 28°27' W 038°07'1 1.6 26.7
2014-Oct-18 17:32N 28°27' W 038°06'0 4.1 26.7
2014-Oct-18 17:27N 28°27' W 038°07'0 0.0 26.7
2014-Oct-18 15:53N 28°27' W 038°07'1 0.8 26.7
2014-Oct-18 14:06N 28°28' W 038°06'0 0.0 26.7
2014-Oct-18 13:59N 28°28' W 038°06'0 0.0 26.7
2014-Oct-18 12:20N 28°28' W 038°06'0 1.6 26.7
2014-Oct-18 12:12N 28°28' W 038°06'0 0.1 26.7
2014-Oct-18 11:27N 28°28' W 038°06'1 8.4 26.7
2014-Oct-18 11:21N 28°29' W 038°06'0 0.0 26.7
2014-Oct-18 09:26N 28°29' W 038°06'0 0.5 26.7
2014-Oct-18 09:17N 28°29' W 038°06'0 2.4 26.7
2014-Oct-18 09:15N 28°29' W 038°06'0 0.1 26.7
2014-Oct-18 08:08N 28°29' W 038°06'0 7.3 26.7
2014-Oct-18 08:06N 28°29' W 038°06'0 0.0 26.7
2014-Oct-18 07:44N 28°29' W 038°06'0 1.2 26.7
2014-Oct-18 07:36N 28°29' W 038°06'2 1.7 26.7
2014-Oct-18 06:33N 28°29' W 038°08'0 0.0 26.7
2014-Oct-18 06:30N 28°29' W 038°08'1 3.3 26.7
2014-Oct-18 06:08N 28°29' W 038°06'115.8 26.7
2014-Oct-18 06:06N 28°29' W 038°07'0 0.0 26.7
2014-Oct-18 06:03N 28°29' W 038°07'1 0.2 26.7
2014-Oct-18 00:45N 28°28' W 038°07'1 0.6 26.8
2014-Oct-17 23:53N 28°28' W 038°07'125.6
2014-Oct-17 23:51N 28°28' W 038°08'111.1
2014-Oct-17 23:48N 28°28' W 038°07'0 0.0 26.8
2014-Oct-17 23:06N 28°28' W 038°07'1 9.9 26.9
2014-Oct-17 23:00N 28°29' W 038°08'0 0.1 26.9
2014-Oct-17 22:15N 28°29' W 038°08'120.6 26.9
2014-Oct-17 22:11N 28°28' W 038°06'0 0.4 26.9
2014-Oct-17 21:05N 28°28' W 038°07'1 1.0 26.9
2014-Oct-17 20:17N 28°28' W 038°08'0 0.9 27.0
2014-Oct-17 19:47N 28°28' W 038°07'0 0.7 27.1
2014-Oct-17 19:26N 28°27' W 038°07'1 8.0 27.1
2014-Oct-17 19:18N 28°27' W 038°06'0 0.0 27.1
2014-Oct-17 18:08N 28°27' W 038°06'0 0.0 27.3
2014-Oct-17 18:06N 28°27' W 038°06'0 1.0 27.3
2014-Oct-17 17:44N 28°27' W 038°06'0 0.0 27.3
2014-Oct-17 17:42N 28°27' W 038°06'0 0.0 27.4
2014-Oct-17 16:03N 28°27' W 038°06'1 0.6 27.7
2014-Oct-17 14:20N 28°28' W 038°05'1 0.4 27.6
2014-Oct-17 12:38N 28°28' W 038°05'0 6.6 27.0
2014-Oct-17 12:36N 28°28' W 038°05'0 4.3 26.9
2014-Oct-17 12:32N 28°28' W 038°05'0 0.0 26.9
2014-Oct-17 11:48N 28°28' W 038°05'0 0.0 26.8
2014-Oct-17 11:45N 28°28' W 038°05'112.5 26.8
2014-Oct-17 11:41N 28°29' W 038°05'0 0.0 26.8
2014-Oct-17 11:00N 28°29' W 038°05'0 2.7 26.7
2014-Oct-17 10:53N 28°29' W 038°05'0 0.0 26.7
2014-Oct-17 09:50N 28°29' W 038°05'0 3.4 26.7
2014-Oct-17 09:44N 28°29' W 038°05'0 0.0 26.7
2014-Oct-17 08:26N 28°29' W 038°05'0 1.9 26.7
2014-Oct-17 08:21N 28°29' W 038°05'0 9.9 26.7
2014-Oct-17 08:18N 28°29' W 038°05'0 0.0 26.7
2014-Oct-17 08:06N 28°29' W 038°05'140.5 26.7
2014-Oct-17 08:05N 28°29' W 038°05'1 0.5 26.7
2014-Oct-17 06:47N 28°29' W 038°05'0 0.0 26.7
2014-Oct-17 06:42N 28°29' W 038°05'0 0.8 26.7
2014-Oct-17 06:20N 28°30' W 038°05'1 5.2 26.7
2014-Oct-17 06:14N 28°29' W 038°06'0 0.1 26.7
2014-Oct-17 04:38N 28°29' W 038°06'1 5.1 26.8
2014-Oct-17 04:30N 28°29' W 038°06'0 0.0 26.8
2014-Oct-17 02:56N 28°29' W 038°06'0 0.0 26.8
2014-Oct-17 01:06N 28°29' W 038°06'1 1.1 26.8
2014-Oct-17 00:18N 28°28' W 038°07'0 0.0 26.8
2014-Oct-16 23:27N 28°28' W 038°07'0 0.0 26.8
2014-Oct-16 23:23N 28°28' W 038°07'0 1.1 26.8
2014-Oct-16 23:20N 28°28' W 038°07'0 0.5 26.8
2014-Oct-16 22:38N 28°28' W 038°07'0 0.0 26.8
2014-Oct-16 22:33N 28°28' W 038°07'292.8 26.8
2014-Oct-16 22:32N 28°27' W 038°06'0 0.0 26.8
2014-Oct-16 21:26N 28°27' W 038°06'0 0.0 26.8
2014-Oct-16 20:45N 28°27' W 038°06'0 0.0 26.8
2014-Oct-16 19:59N 28°27' W 038°06'1 7.3
2014-Oct-16 19:53N 28°27' W 038°06'0 0.0 26.9
2014-Oct-16 19:47N 28°27' W 038°06'0 0.0 26.9
2014-Oct-16 19:08N 28°27' W 038°06'0 0.0 26.9
2014-Oct-16 18:20N 28°27' W 038°06'1 3.3 26.9
2014-Oct-16 18:08N 28°27' W 038°06'1 0.2 26.9
2014-Oct-16 12:08N 28°28' W 038°04'0 0.1 26.7
2014-Oct-16 11:18N 28°28' W 038°04'118.5 26.7
2014-Oct-16 11:15N 28°29' W 038°04'0 0.0 26.7
2014-Oct-16 10:14N 28°29' W 038°04'1 0.4 26.7
2014-Oct-16 08:29N 28°29' W 038°05'0 0.1 26.7
2014-Oct-16 06:53N 28°29' W 038°05'0 0.1 26.8
2014-Oct-16 04:53N 28°29' W 038°05'2 0.4 26.8
2014-Oct-15 23:02N 28°27' W 038°07'1 5.3 26.9
2014-Oct-15 22:50N 28°27' W 038°05'0 0.0 26.9
2014-Oct-15 22:06N 28°27' W 038°05'1 0.6 26.9
2014-Oct-15 20:11N 28°25' W 038°05'1 0.4 26.9
2014-Oct-15 18:29N 28°26' W 038°06'3 6.5 26.9
2014-Oct-15 18:02N 28°26' W 038°02'0 0.0 26.9
2014-Oct-15 16:47N 28°26' W 038°02'0 0.3 26.9
2014-Oct-15 16:23N 28°26' W 038°03'1 0.3 26.9
2014-Oct-15 14:44N 28°25' W 038°03'1 0.5 26.9
2014-Oct-15 12:29N 28°26' W 038°02'0 0.0 26.9
2014-Oct-15 12:26N 28°26' W 038°02'0 0.0 26.9
2014-Oct-15 12:21N 28°26' W 038°02'0 0.0 26.9
2014-Oct-15 11:39N 28°26' W 038°02'1 0.7 27.0
2014-Oct-15 10:50N 28°27' W 038°02'0 0.0 27.0
2014-Oct-15 09:08N 28°27' W 038°02'0 1.2 27.0
2014-Oct-15 08:57N 28°27' W 038°02'1 2.8 27.0
2014-Oct-15 08:45N 28°28' W 038°02'0 0.2 27.0
2014-Oct-15 07:08N 28°28' W 038°02'0 0.0 27.0
2014-Oct-15 07:03N 28°28' W 038°02'0 0.0 27.0
2014-Oct-15 06:42N 28°28' W 038°02'0 2.2 27.0
2014-Oct-15 06:36N 28°28' W 038°02'0 0.0 27.0
2014-Oct-15 05:23N 28°28' W 038°02'0 0.0 27.0
2014-Oct-15 05:02N 28°28' W 038°02'1 7.1 27.0
2014-Oct-15 04:53N 28°29' W 038°02'0 0.0 27.0
2014-Oct-15 03:21N 28°29' W 038°02'0 0.0 27.0
2014-Oct-15 00:53N 28°29' W 038°02'0 0.0 27.1
2014-Oct-15 00:08N 28°29' W 038°02'1 1.5 27.1
2014-Oct-14 23:14N 28°29' W 038°04'0 0.2 27.1
2014-Oct-14 20:39N 28°29' W 038°03'0 0.0 27.2
2014-Oct-14 19:00N 28°29' W 038°03'0 1.1 27.2
2014-Oct-14 18:41N 28°29' W 038°03'0 0.0 27.2
2014-Oct-14 18:11N 28°29' W 038°03'   27.2
Track history (hours):
 
Tides and Currents Weather Stations Pressure Air Temp Water Temp Dewpoint Dewpoint Depression Visibility Wind Speed Wind Dir Waves Ship Positions

Ao Chao Yang 13516

Last reported at 2014-Oct-24 18:11 UTC. Time now 2014-Oct-24 18:46 UTC.
Position N 28°26' W 037°55'.

Length 20 m.

Type: Fishing. MMSI: 412469022.

Water temperature 26.0 ° C

Date/timePositionNaut miles runAvg speedWind from/ knotsBaromVisibWave heightAir tempDewpointWater temp
2014-Oct-24 18:11N 28°26' W 037°55'0 0.0 26.0
2014-Oct-24 18:03N 28°26' W 037°55'0 0.0 26.0
2014-Oct-24 16:26N 28°25' W 037°55'2 1.0 26.1
2014-Oct-24 14:44N 28°26' W 037°57'0 0.0 26.0
2014-Oct-24 14:21N 28°26' W 037°57'0 0.0 26.0
2014-Oct-24 13:36N 28°26' W 037°57'0 0.0 26.0
2014-Oct-24 12:47N 28°26' W 037°57'1 4.2 26.0
2014-Oct-24 12:39N 28°26' W 037°58'112.7
2014-Oct-24 12:35N 28°26' W 037°59'0 0.0 26.0
2014-Oct-24 11:51N 28°26' W 037°59'0 0.0 26.0
2014-Oct-24 11:47N 28°26' W 037°59'0 0.0 26.0
2014-Oct-24 11:03N 28°26' W 037°59'0 0.0 26.0
2014-Oct-24 11:00N 28°26' W 037°59'0 0.2 26.0
2014-Oct-24 09:26N 28°26' W 037°58'0 0.4 26.0
2014-Oct-24 08:45N 28°26' W 037°58'0 3.2 26.0
2014-Oct-24 08:39N 28°26' W 037°59'0 0.0 26.0
2014-Oct-24 08:35N 28°26' W 037°59'0 0.1 26.0
2014-Oct-24 07:05N 28°25' W 037°59'1 0.3 26.0
2014-Oct-24 05:23N 28°25' W 037°59'0 0.0 26.0
2014-Oct-24 05:02N 28°25' W 037°59'111.6 26.0
2014-Oct-24 04:56N 28°24' W 037°59'0 0.0 26.0
2014-Oct-24 03:23N 28°24' W 037°59'123.0
2014-Oct-24 03:21N 28°25' W 037°59'112.7 26.0
2014-Oct-24 03:15N 28°25' W 037°58'0 0.0 26.0
2014-Oct-24 00:23N 28°25' W 037°58'1 0.7 26.0
2014-Oct-23 23:33N 28°24' W 037°58'0 0.0 26.0
2014-Oct-23 23:29N 28°24' W 037°58'0 0.0 26.0
2014-Oct-23 23:20N 28°24' W 037°58'0 0.0 26.0
2014-Oct-23 22:38N 28°24' W 037°58'0 3.6 26.0
2014-Oct-23 22:35N 28°24' W 037°58'0 0.0 26.1
2014-Oct-23 22:32N 28°24' W 037°58'0 0.0 26.1
2014-Oct-23 22:15N 28°24' W 037°58'1 0.5 26.1
2014-Oct-23 20:27N 28°25' W 037°58'0 0.0 26.1
2014-Oct-23 20:17N 28°25' W 037°58'1 0.6 26.1
2014-Oct-23 18:39N 28°26' W 037°57'0 0.0 26.1
2014-Oct-23 18:33N 28°26' W 037°57'0 0.0 26.1
2014-Oct-23 16:57N 28°26' W 037°57'0 0.3 26.2
2014-Oct-23 16:38N 28°26' W 037°57'0 1.2 26.2
2014-Oct-23 16:32N 28°26' W 037°57'1 0.5 26.2
2014-Oct-23 14:53N 28°27' W 037°58'1 0.9 26.1
2014-Oct-23 13:56N 28°27' W 037°59'1 1.0 26.1
2014-Oct-23 13:06N 28°27' W 037°58'1 7.0 26.1
2014-Oct-23 12:59N 28°27' W 037°59'0 0.0 26.1
2014-Oct-23 12:11N 28°27' W 037°59'0 0.0 26.0
2014-Oct-23 12:08N 28°27' W 037°59'0 0.2 26.0
2014-Oct-23 11:23N 28°27' W 037°59'0 3.2 26.0
2014-Oct-23 11:18N 28°27' W 037°59'112.4 26.0
2014-Oct-23 11:15N 28°26' W 037°59'0 0.0 26.0
2014-Oct-23 09:53N 28°26' W 037°59'1 0.9 26.0
2014-Oct-23 08:59N 28°27' W 038°00'0 0.2 26.0
2014-Oct-23 07:15N 28°27' W 038°00'0 3.5 26.0
2014-Oct-23 07:08N 28°27' W 038°01'0 0.0 26.0
2014-Oct-23 06:53N 28°27' W 038°01'0 0.0 26.0
2014-Oct-23 06:38N 28°27' W 038°01'0 0.0 26.1
2014-Oct-23 05:35N 28°27' W 038°01'1 1.4 26.1
2014-Oct-23 05:14N 28°26' W 038°01'1 6.9 26.1
2014-Oct-23 05:06N 28°25' W 037°60'0 0.0 26.1
2014-Oct-23 03:33N 28°25' W 037°60'0 0.1 26.1
2014-Oct-22 23:51N 28°25' W 038°00'0 0.0 26.1
2014-Oct-22 23:47N 28°25' W 038°00'0 0.0
2014-Oct-22 23:03N 28°25' W 038°00'1 5.9 26.1
2014-Oct-22 22:57N 28°25' W 037°60'0 0.0 26.1
2014-Oct-22 22:44N 28°25' W 037°60'1 2.1 26.1
2014-Oct-22 22:12N 28°26' W 037°60'0 0.0 26.1
2014-Oct-22 20:57N 28°26' W 037°60'0 0.0 26.1
2014-Oct-22 20:42N 28°26' W 037°60'0 0.0 26.1
2014-Oct-22 20:29N 28°26' W 037°60'0 0.0 26.1
2014-Oct-22 19:21N 28°26' W 037°60'0 0.0 26.1
2014-Oct-22 18:51N 28°26' W 037°60'0 0.0 26.2
2014-Oct-22 17:05N 28°26' W 037°60'0 0.0 26.2
2014-Oct-22 16:48N 28°26' W 037°60'1 0.3 26.2
2014-Oct-22 15:08N 28°27' W 037°59'1 0.5 26.2
2014-Oct-22 12:35N 28°28' W 038°01'0 0.0 26.2
2014-Oct-22 11:44N 28°28' W 038°01'1 7.6 26.1
2014-Oct-22 11:39N 28°28' W 038°01'0 0.2 26.1
2014-Oct-22 10:48N 28°28' W 038°01'0 0.0 26.1
2014-Oct-22 09:23N 28°28' W 038°01'139.5 26.1
2014-Oct-22 09:21N 28°27' W 038°03'0 0.0 26.1
2014-Oct-22 09:06N 28°27' W 038°03'1 9.5 26.1
2014-Oct-22 09:02N 28°27' W 038°02'1 5.9 26.1
2014-Oct-22 08:50N 28°28' W 038°01'1 0.6 26.1
2014-Oct-22 07:27N 28°27' W 038°02'0 0.3 26.1
2014-Oct-22 07:08N 28°27' W 038°02'1 0.5 26.1
2014-Oct-22 05:48N 28°27' W 038°02'0 3.6 26.1
2014-Oct-22 05:44N 28°27' W 038°02'0 0.0 26.1
2014-Oct-22 05:24N 28°27' W 038°02'1 0.4 26.1
2014-Oct-22 03:47N 28°27' W 038°03'0 0.0 26.2
2014-Oct-22 03:44N 28°27' W 038°03'1 9.5 26.2
2014-Oct-22 03:36N 28°26' W 038°03'0 0.1 26.2
2014-Oct-22 01:03N 28°26' W 038°02'2 2.5 26.2
2014-Oct-22 00:15N 28°27' W 038°01'214.8 26.2
2014-Oct-22 00:08N 28°26' W 038°03'0 0.0 26.2
2014-Oct-21 23:24N 28°26' W 038°03'110.5 26.2
2014-Oct-21 23:17N 28°26' W 038°01'0 0.0 26.2
2014-Oct-21 22:33N 28°26' W 038°01'0 0.0 26.2
2014-Oct-21 22:27N 28°26' W 038°01'0 0.0 26.2
2014-Oct-21 21:38N 28°26' W 038°01'1 0.5 26.2
2014-Oct-21 20:38N 28°27' W 038°01'0 0.0 26.2
2014-Oct-21 19:59N 28°27' W 038°01'0 0.0 26.2
2014-Oct-21 19:27N 28°27' W 038°01'0 0.0 26.2
2014-Oct-21 19:02N 28°27' W 038°01'0 0.0 26.2
2014-Oct-21 18:57N 28°27' W 038°01'0 0.2 26.2
2014-Oct-21 17:45N 28°27' W 038°01'1 1.6 26.3
2014-Oct-21 17:21N 28°27' W 038°01'0 0.0 26.2
2014-Oct-21 17:00N 28°27' W 038°01'1 0.6 26.2
2014-Oct-21 15:18N 28°27' W 038°02'1 0.2 26.3
2014-Oct-21 12:53N 28°28' W 038°02'0 0.0 26.2
2014-Oct-21 12:51N 28°28' W 038°02'110.9 26.2
2014-Oct-21 12:48N 28°28' W 038°02'0 0.5 26.2
2014-Oct-21 12:06N 28°28' W 038°02'1 0.7 26.2
2014-Oct-21 11:11N 28°28' W 038°03'0 0.0 26.2
2014-Oct-21 09:45N 28°28' W 038°03'0 0.0 26.2
2014-Oct-21 09:20N 28°28' W 038°03'119.3 26.2
2014-Oct-21 09:18N 28°28' W 038°02'0 0.0 26.2
2014-Oct-21 09:14N 28°28' W 038°02'0 0.0 26.2
2014-Oct-21 08:08N 28°28' W 038°02'0 1.1 26.2
2014-Oct-21 07:41N 28°28' W 038°03'0 4.8 26.3
2014-Oct-21 07:38N 28°28' W 038°03'0 7.5 26.3
2014-Oct-21 07:35N 28°28' W 038°03'0 0.0 26.3
2014-Oct-21 07:32N 28°28' W 038°03'0 0.0 26.3
2014-Oct-21 06:30N 28°28' W 038°03'0 0.7 26.3
2014-Oct-21 06:00N 28°28' W 038°03'0 8.9 26.3
2014-Oct-21 05:57N 28°28' W 038°03'0 0.0 26.3
2014-Oct-21 05:53N 28°28' W 038°03'0 0.0 26.3
2014-Oct-21 05:33N 28°28' W 038°03'111.2 26.3
2014-Oct-21 05:29N 28°28' W 038°04'0 0.0 26.3
2014-Oct-21 03:51N 28°28' W 038°04'111.6 26.3
2014-Oct-21 03:48N 28°27' W 038°03'0 0.0 26.3
2014-Oct-21 01:23N 28°27' W 038°03'1 1.3 26.3
2014-Oct-21 00:35N 28°27' W 038°05'0 0.0 26.3
2014-Oct-20 23:44N 28°27' W 038°05'0 0.0 26.3
2014-Oct-20 23:41N 28°27' W 038°05'0 0.0 26.3
2014-Oct-20 22:53N 28°27' W 038°05'116.7 26.3
2014-Oct-20 22:51N 28°27' W 038°04'0 0.0 26.3
2014-Oct-20 22:44N 28°27' W 038°04'0 0.0
2014-Oct-20 22:06N 28°27' W 038°04'110.4 26.4
2014-Oct-20 22:02N 28°26' W 038°04'0 3.9 26.4
2014-Oct-20 21:57N 28°27' W 038°03'0 0.0 26.4
2014-Oct-20 21:27N 28°27' W 038°03'0 0.2 26.4
2014-Oct-20 20:21N 28°27' W 038°03'0 0.1 26.4
2014-Oct-20 19:53N 28°27' W 038°03'1 5.8 26.4
2014-Oct-20 19:47N 28°27' W 038°03'0 0.1 26.4
2014-Oct-20 19:08N 28°27' W 038°03'1 0.8 26.4
2014-Oct-20 18:11N 28°27' W 038°03'1 1.5 26.4
2014-Oct-20 17:32N 28°27' W 038°02'0 0.9 26.4
2014-Oct-20 17:08N 28°27' W 038°03'0 0.2 26.4
2014-Oct-20 15:29N 28°27' W 038°03'0 0.3 26.4
2014-Oct-20 14:05N 28°28' W 038°03'0 0.1 26.4
2014-Oct-20 13:17N 28°27' W 038°03'0 4.3 26.4
2014-Oct-20 13:11N 28°28' W 038°03'0 0.0 26.4
2014-Oct-20 12:24N 28°28' W 038°03'0 1.6 26.4
2014-Oct-20 12:21N 28°28' W 038°03'0 6.4 26.4
2014-Oct-20 12:18N 28°28' W 038°03'0 0.0 26.4
2014-Oct-20 11:33N 28°28' W 038°03'130.5
2014-Oct-20 11:32N 28°28' W 038°04'0 0.5 26.4
2014-Oct-20 10:38N 28°28' W 038°04'0 0.0
2014-Oct-20 09:48N 28°28' W 038°04'1 0.6 26.4
2014-Oct-20 08:33N 28°28' W 038°03'1 1.4 26.4
2014-Oct-20 08:08N 28°28' W 038°04'0 0.5 26.4
2014-Oct-20 07:47N 28°28' W 038°04'0 9.8 26.4
2014-Oct-20 07:44N 28°28' W 038°04'0 0.1 26.4
2014-Oct-20 06:51N 28°28' W 038°04'0 0.6 26.4
2014-Oct-20 06:30N 28°28' W 038°04'1 2.1 26.5
2014-Oct-20 06:08N 28°28' W 038°05'0 1.6 26.5
2014-Oct-20 06:02N 28°28' W 038°05'0 0.2 26.5
2014-Oct-20 05:45N 28°28' W 038°05'0 4.1 26.5
2014-Oct-20 05:41N 28°28' W 038°05'1 0.1 26.5
2014-Oct-20 00:53N 28°28' W 038°06'0 0.5 26.5
2014-Oct-20 00:05N 28°28' W 038°05'2 1.8 26.5
2014-Oct-19 23:15N 28°27' W 038°06'0 3.1 26.5
2014-Oct-19 23:08N 28°27' W 038°06'1 1.6 26.5
2014-Oct-19 22:24N 28°28' W 038°07'217.1 26.5
2014-Oct-19 22:17N 28°27' W 038°06'0 0.0 26.5
2014-Oct-19 20:51N 28°27' W 038°06'0 0.4 26.5
2014-Oct-19 20:17N 28°27' W 038°06'0 0.0 26.6
2014-Oct-19 19:23N 28°27' W 038°06'0 1.6 26.5
2014-Oct-19 19:21N 28°27' W 038°06'0 2.4 26.6
2014-Oct-19 19:15N 28°26' W 038°06'0 0.0 26.6
2014-Oct-19 18:36N 28°26' W 038°06'0 0.3 26.6
2014-Oct-19 17:42N 28°26' W 038°05'0 1.3 26.6
2014-Oct-19 17:20N 28°27' W 038°06'1 0.5 26.6
2014-Oct-19 15:41N 28°27' W 038°07'1 0.7 26.6
2014-Oct-19 14:24N 28°27' W 038°06'1 1.5 26.6
2014-Oct-19 13:39N 28°28' W 038°06'0 0.5 26.6
2014-Oct-19 12:50N 28°27' W 038°05'0 2.8 26.6
2014-Oct-19 12:41N 28°28' W 038°06'0 0.4 26.6
2014-Oct-19 11:53N 28°28' W 038°05'0 7.3 26.6
2014-Oct-19 11:50N 28°28' W 038°05'1 1.4 26.6
2014-Oct-19 11:06N 28°29' W 038°06'0 0.0 26.6
2014-Oct-19 11:00N 28°29' W 038°06'0 0.1 26.6
2014-Oct-19 08:57N 28°29' W 038°07'1 5.2 26.6
2014-Oct-19 08:51N 28°29' W 038°06'1 4.4 26.6
2014-Oct-19 08:44N 28°29' W 038°07'1 0.8 26.6
2014-Oct-19 08:03N 28°29' W 038°06'0 1.8 26.6
2014-Oct-19 07:59N 28°29' W 038°06'0 0.3 26.6
2014-Oct-19 07:20N 28°29' W 038°06'0 1.1 26.6
2014-Oct-19 07:03N 28°29' W 038°07'0 0.6 26.6
2014-Oct-19 06:21N 28°29' W 038°07'0 0.9 26.6
2014-Oct-19 05:51N 28°29' W 038°08'0 0.0 26.6
2014-Oct-19 04:17N 28°29' W 038°08'0 2.4 26.6
2014-Oct-19 04:08N 28°28' W 038°08'0 0.2 26.6
2014-Oct-19 01:12N 28°28' W 038°08'0 0.0 26.6
2014-Oct-19 00:26N 28°28' W 038°08'1 1.4 26.6
2014-Oct-18 23:36N 28°28' W 038°09'0 0.0 26.6
2014-Oct-18 23:32N 28°28' W 038°09'121.3 26.6
2014-Oct-18 23:29N 28°27' W 038°08'0 0.0 26.6
2014-Oct-18 22:45N 28°27' W 038°08'1 7.8 26.6
2014-Oct-18 22:39N 28°27' W 038°07'0 0.0 26.6
2014-Oct-18 21:33N 28°27' W 038°07'1 1.0 26.7
2014-Oct-18 20:41N 28°27' W 038°08'1 1.3 26.7
2014-Oct-18 19:47N 28°27' W 038°07'110.2 26.7
2014-Oct-18 19:44N 28°27' W 038°07'0 0.0 26.7
2014-Oct-18 19:36N 28°27' W 038°07'0 0.0 26.7
2014-Oct-18 19:02N 28°27' W 038°07'1 6.0 26.7
2014-Oct-18 18:56N 28°27' W 038°07'0 0.3 26.7
2014-Oct-18 17:56N 28°27' W 038°07'1 1.6 26.7
2014-Oct-18 17:32N 28°27' W 038°06'0 4.1 26.7
2014-Oct-18 17:27N 28°27' W 038°07'0 0.0 26.7
2014-Oct-18 15:53N 28°27' W 038°07'1 0.8 26.7
2014-Oct-18 14:06N 28°28' W 038°06'0 0.0 26.7
2014-Oct-18 13:59N 28°28' W 038°06'0 0.0 26.7
2014-Oct-18 12:20N 28°28' W 038°06'0 1.6 26.7
2014-Oct-18 12:12N 28°28' W 038°06'0 0.1 26.7
2014-Oct-18 11:27N 28°28' W 038°06'1 8.4 26.7
2014-Oct-18 11:21N 28°29' W 038°06'0 0.0 26.7
2014-Oct-18 09:26N 28°29' W 038°06'0 0.5 26.7
2014-Oct-18 09:17N 28°29' W 038°06'0 2.4 26.7
2014-Oct-18 09:15N 28°29' W 038°06'0 0.1 26.7
2014-Oct-18 08:08N 28°29' W 038°06'0 7.3 26.7
2014-Oct-18 08:06N 28°29' W 038°06'0 0.0 26.7
2014-Oct-18 07:44N 28°29' W 038°06'0 1.2 26.7
2014-Oct-18 07:36N 28°29' W 038°06'2 1.7 26.7
2014-Oct-18 06:33N 28°29' W 038°08'0 0.0 26.7
2014-Oct-18 06:30N 28°29' W 038°08'1 3.3 26.7
2014-Oct-18 06:08N 28°29' W 038°06'115.8 26.7
2014-Oct-18 06:06N 28°29' W 038°07'0 0.0 26.7
2014-Oct-18 06:03N 28°29' W 038°07'1 0.2 26.7
2014-Oct-18 00:45N 28°28' W 038°07'1 0.6 26.8
2014-Oct-17 23:53N 28°28' W 038°07'125.6
2014-Oct-17 23:51N 28°28' W 038°08'111.1
2014-Oct-17 23:48N 28°28' W 038°07'0 0.0 26.8
2014-Oct-17 23:06N 28°28' W 038°07'1 9.9 26.9
2014-Oct-17 23:00N 28°29' W 038°08'0 0.1 26.9
2014-Oct-17 22:15N 28°29' W 038°08'120.6 26.9
2014-Oct-17 22:11N 28°28' W 038°06'0 0.4 26.9
2014-Oct-17 21:05N 28°28' W 038°07'1 1.0 26.9
2014-Oct-17 20:17N 28°28' W 038°08'0 0.9 27.0
2014-Oct-17 19:47N 28°28' W 038°07'0 0.7 27.1
2014-Oct-17 19:26N 28°27' W 038°07'1 8.0 27.1
2014-Oct-17 19:18N 28°27' W 038°06'0 0.0 27.1
2014-Oct-17 18:08N 28°27' W 038°06'0 0.0 27.3
2014-Oct-17 18:06N 28°27' W 038°06'0 1.0 27.3
2014-Oct-17 17:44N 28°27' W 038°06'0 0.0 27.3
2014-Oct-17 17:42N 28°27' W 038°06'0 0.0 27.4
2014-Oct-17 16:03N 28°27' W 038°06'1 0.6 27.7
2014-Oct-17 14:20N 28°28' W 038°05'1 0.4 27.6
2014-Oct-17 12:38N 28°28' W 038°05'0 6.6 27.0
2014-Oct-17 12:36N 28°28' W 038°05'0 4.3 26.9
2014-Oct-17 12:32N 28°28' W 038°05'0 0.0 26.9
2014-Oct-17 11:48N 28°28' W 038°05'0 0.0 26.8
2014-Oct-17 11:45N 28°28' W 038°05'112.5 26.8
2014-Oct-17 11:41N 28°29' W 038°05'0 0.0 26.8
2014-Oct-17 11:00N 28°29' W 038°05'0 2.7 26.7
2014-Oct-17 10:53N 28°29' W 038°05'0 0.0 26.7
2014-Oct-17 09:50N 28°29' W 038°05'0 3.4 26.7
2014-Oct-17 09:44N 28°29' W 038°05'0 0.0 26.7
2014-Oct-17 08:26N 28°29' W 038°05'0 1.9 26.7
2014-Oct-17 08:21N 28°29' W 038°05'0 9.9 26.7
2014-Oct-17 08:18N 28°29' W 038°05'0 0.0 26.7
2014-Oct-17 08:06N 28°29' W 038°05'140.5 26.7
2014-Oct-17 08:05N 28°29' W 038°05'1 0.5 26.7
2014-Oct-17 06:47N 28°29' W 038°05'0 0.0 26.7
2014-Oct-17 06:42N 28°29' W 038°05'0 0.8 26.7
2014-Oct-17 06:20N 28°30' W 038°05'1 5.2 26.7
2014-Oct-17 06:14N 28°29' W 038°06'0 0.1 26.7
2014-Oct-17 04:38N 28°29' W 038°06'1 5.1 26.8
2014-Oct-17 04:30N 28°29' W 038°06'0 0.0 26.8
2014-Oct-17 02:56N 28°29' W 038°06'0 0.0 26.8
2014-Oct-17 01:06N 28°29' W 038°06'1 1.1 26.8
2014-Oct-17 00:18N 28°28' W 038°07'0 0.0 26.8
2014-Oct-16 23:27N 28°28' W 038°07'0 0.0 26.8
2014-Oct-16 23:23N 28°28' W 038°07'0 1.1 26.8
2014-Oct-16 23:20N 28°28' W 038°07'0 0.5 26.8
2014-Oct-16 22:38N 28°28' W 038°07'0 0.0 26.8
2014-Oct-16 22:33N 28°28' W 038°07'292.8 26.8
2014-Oct-16 22:32N 28°27' W 038°06'0 0.0 26.8
2014-Oct-16 21:26N 28°27' W 038°06'0 0.0 26.8
2014-Oct-16 20:45N 28°27' W 038°06'0 0.0 26.8
2014-Oct-16 19:59N 28°27' W 038°06'1 7.3
2014-Oct-16 19:53N 28°27' W 038°06'0 0.0 26.9
2014-Oct-16 19:47N 28°27' W 038°06'0 0.0 26.9
2014-Oct-16 19:08N 28°27' W 038°06'0 0.0 26.9
2014-Oct-16 18:20N 28°27' W 038°06'1 3.3 26.9
2014-Oct-16 18:08N 28°27' W 038°06'1 0.2 26.9
2014-Oct-16 12:08N 28°28' W 038°04'0 0.1 26.7
2014-Oct-16 11:18N 28°28' W 038°04'118.5 26.7
2014-Oct-16 11:15N 28°29' W 038°04'0 0.0 26.7
2014-Oct-16 10:14N 28°29' W 038°04'1 0.4 26.7
2014-Oct-16 08:29N 28°29' W 038°05'0 0.1 26.7
2014-Oct-16 06:53N 28°29' W 038°05'0 0.1 26.8
2014-Oct-16 04:53N 28°29' W 038°05'2 0.4 26.8
2014-Oct-15 23:02N 28°27' W 038°07'1 5.3 26.9
2014-Oct-15 22:50N 28°27' W 038°05'0 0.0 26.9
2014-Oct-15 22:06N 28°27' W 038°05'1 0.6 26.9
2014-Oct-15 20:11N 28°25' W 038°05'1 0.4 26.9
2014-Oct-15 18:29N 28°26' W 038°06'3 6.5 26.9
2014-Oct-15 18:02N 28°26' W 038°02'0 0.0 26.9
2014-Oct-15 16:47N 28°26' W 038°02'0 0.3 26.9
2014-Oct-15 16:23N 28°26' W 038°03'1 0.3 26.9
2014-Oct-15 14:44N 28°25' W 038°03'1 0.5 26.9
2014-Oct-15 12:29N 28°26' W 038°02'0 0.0 26.9
2014-Oct-15 12:26N 28°26' W 038°02'0 0.0 26.9
2014-Oct-15 12:21N 28°26' W 038°02'0 0.0 26.9
2014-Oct-15 11:39N 28°26' W 038°02'1 0.7 27.0
2014-Oct-15 10:50N 28°27' W 038°02'0 0.0 27.0
2014-Oct-15 09:08N 28°27' W 038°02'0 1.2 27.0
2014-Oct-15 08:57N 28°27' W 038°02'1 2.8 27.0
2014-Oct-15 08:45N 28°28' W 038°02'0 0.2 27.0
2014-Oct-15 07:08N 28°28' W 038°02'0 0.0 27.0
2014-Oct-15 07:03N 28°28' W 038°02'0 0.0 27.0
2014-Oct-15 06:42N 28°28' W 038°02'0 2.2 27.0
2014-Oct-15 06:36N 28°28' W 038°02'0 0.0 27.0
2014-Oct-15 05:23N 28°28' W 038°02'0 0.0 27.0
2014-Oct-15 05:02N 28°28' W 038°02'1 7.1 27.0
2014-Oct-15 04:53N 28°29' W 038°02'0 0.0 27.0
2014-Oct-15 03:21N 28°29' W 038°02'0 0.0 27.0
2014-Oct-15 00:53N 28°29' W 038°02'0 0.0 27.1
2014-Oct-15 00:08N 28°29' W 038°02'1 1.5 27.1
2014-Oct-14 23:14N 28°29' W 038°04'0 0.2 27.1
2014-Oct-14 20:39N 28°29' W 038°03'0 0.0 27.2
2014-Oct-14 19:00N 28°29' W 038°03'0 1.1 27.2
2014-Oct-14 18:41N 28°29' W 038°03'0 0.0 27.2
2014-Oct-14 18:11N 28°29' W 038°03'   27.2

Dump ship's entire track history